Torda, Románia

2014 November 28 05:35 PM (EET időzóna) (GMT +0200)
ICLUJCLU2 | Change Station
CLOSE
Current Station
Personal Weather Stations
Location: Cluj-Napoca - Aspar.ro, Cluj
Elevation: 1010 ft
Közeli meteorológiai állomások

Elev 1010 ft 46.78 °N, 23.72 °E | Updated 7 minutes ago

Overcast
Borús
31.6 °F
Hőérzet 32 °F
N
2.0
Szél: változó Szél: from keleti
Gusts 7.0 mph

Ma
High -- | Low -- °F
--% Csapadék valószínű
Tegnapi
High -- | Low -- °F
Precip. -- hvlyk.
7:44 AM 4:40 PM
Növekvő holdsarló, 41% visible
Légnyomás 30.15 hvlyk.
Látótávolság 2.5 mérföld
Felhők Elszórtan felhős 600 ft
Borús 3400 ft
Hőérzet 32 °F
Harmatpont 30 °F
Páratartalom 95%
Rainfall 0.00 hvlyk.
Hóréteg vastagsága Not available.
UV 0 out of 12
Pollen Not available.
A levegő minősége Not available.
Flu Activity Not available.
METAR LRCL 281530Z 08006KT 4000 BR SCT006 OVC034 M00/M00 Q1021 R07/19//95

More Conditions Fewer Conditions

Légnyomás 30.15 hvlyk.
Látótávolság 2.5 mérföld
Felhők Elszórtan felhős 600 ft
Borús 3400 ft
Hőérzet 32 °F
Harmatpont 30 °F
Páratartalom 95%
Rainfall 0.00 hvlyk.
Hóréteg vastagsága Not available.
UV 0 out of 12
Pollen Not available.
A levegő minősége Not available.
Flu Activity Not available.
METAR LRCL 281530Z 08006KT 4000 BR SCT006 OVC034 M00/M00 Q1021 R07/19//95

More Conditions Fewer Conditions

10-Day Weather Forecast

Almanac

Csillagászat

Nov. 28, 2014 Kel Nyugszik
Tényleges idő
Civil alkony
Tengerészeti alkony
Csillagászati alkony
Hold
Látható fény időtartama
A nap hossza
Tomorrow will be .
, % of the Moon is Illuminated

Today's Extremes

Country Highs Country Lows

Community

WunderPhotos

Upload Photos

1,774,229 Fotók feltöltve.

WunderBlogs® & News

Nearby

A levegő minősége

  A levegő minősége AQ Index Szennyezőanyag
Not available.

Hóréteg vastagsága

Station Depth Elevation

Earthquake Activity

város Distance Mag. Time & Date
Minimum magnitude displayed is 2.5.

Coastal Water Temperatures

Hely Hőmérséklet

Közeli meteorológiai állomások